PTRO

Details ICAO PTRO (ROR)
Name Airai Roman Tmetuchl Intl
Region Federated States of Micronesia, Palau
Timezone Pacific/Palau (UTC+9.0)
Plans Departing 176
Arriving 281
Stats Elevation 176 ft / 54 m (AMSL)
Location 7.367320° 134.544000°
Runways 1
Magnetic Variation 0.231° W
Sunrise 2021-09-24 20:51:57 UTC / 2021-09-25 05:51:57 Local
Sunset 2021-09-25 08:57:53 UTC / 2021-09-25 17:57:53 Local
Advertisement - Login to hide

Runways

ID Width Length Bearing (true/mag) Surface Threshold Overrun Markings Lighting
09 151 ft / 46 m 7,188 ft / 2,191 m 91.31° / 91.54° ASPHALT 0 ft / 0 m 200 ft / 61 m PREC-APP EDGE THRESHOLD REIL-OMNI
27 151 ft / 46 m 7,188 ft / 2,191 m 271.31° / 271.54° ASPHALT 0 ft / 0 m 200 ft / 61 m PREC-APP EDGE THRESHOLD REIL-OMNI

Map

Weather


0- 5 10 15 20 25 30 35+ Temperature / °C

Clouds and Precipitation
Forecast for 2021-09-25 00:00 UTC. Updated 3 hours ago

Ground ~20,000 ft ~40,000 ft Winds

METAR

PTRO 250050Z 21013G20KT 10SM -SHRA FEW008 BKN014CB BKN110 OVC290 27/25 A2979 RMK CB ALQDS AND OHD

TAF

TAF PTRO 242334Z 2500/2524 23011KT P6SM -RA SCT016 BKN110 TEMPO 2502/2506 25012G22KT 4SM SHRA BKN015 FM250600 23011KT P6SM VCSH SCT016 BKN130

Frequencies

Unicom 123.60 MHz Koror RADIO
Warning: Do not use this data for real-world aviation or navigation. No guarantee of current accuracy is given.